Time;durP1;ratioP1;P1;durP2;ratioP2;P2;SDS_P1;SDS_P2;PMS_P1;PMS_P2;Temp;Humidity;BMP_temperature;BMP_pressure;BME280_temperature;BME280_humidity;BME280_pressure;Samples;Min_cycle;Max_cycle;Signal;HPM_P1;HPM_P2
2021/01/17 00:00:20;;;;;;;24.95;5.63;;;;;;;7.45;100.00;102521.00;5072638;28;20048;-66
2021/01/17 00:02:47;;;;;;;22.33;3.95;;;;;;;7.45;100.00;102515.56;5074871;28;20417;-66
2021/01/17 00:05:15;;;;;;;31.08;4.05;;;;;;;7.48;100.00;102515.25;5074649;28;20478;-66
2021/01/17 00:07:41;;;;;;;25.73;4.18;;;;;;;7.48;100.00;102517.97;5074560;28;20029;-66
2021/01/17 00:10:09;;;;;;;32.47;4.47;;;;;;;7.48;100.00;102508.97;5056454;28;20028;-65
2021/01/17 00:12:35;;;;;;;24.38;4.05;;;;;;;7.46;100.00;102506.41;5074618;28;20044;-66
2021/01/17 00:15:01;;;;;;;18.27;2.60;;;;;;;7.45;100.00;102515.56;5074396;28;20033;-66
2021/01/17 00:17:27;;;;;;;22.50;4.80;;;;;;;7.45;100.00;102510.13;5056504;28;20399;-66
2021/01/17 00:19:56;;;;;;;26.23;3.85;;;;;;;7.44;100.00;102516.59;5074399;28;20520;-66
2021/01/17 00:22:22;;;;;;;36.47;4.35;;;;;;;7.45;100.00;102518.28;5074363;28;20037;-66
2021/01/17 00:24:48;;;;;;;21.60;3.45;;;;;;;7.43;100.00;102520.34;5056503;28;20406;-65
2021/01/17 00:27:14;;;;;;;26.63;4.45;;;;;;;7.43;100.00;102522.22;5074203;28;20056;-66
2021/01/17 00:29:40;;;;;;;27.92;4.03;;;;;;;7.41;100.00;102519.69;5074198;28;20554;-66
2021/01/17 00:32:12;;;;;;;19.40;3.75;;;;;;;7.39;100.00;102521.75;5074138;28;20036;-66
2021/01/17 00:34:39;;;;;;;24.58;3.75;;;;;;;7.40;100.00;102518.00;5074174;28;20052;-66
2021/01/17 00:37:05;;;;;;;30.83;4.40;;;;;;;7.42;100.00;102536.84;5074081;28;20123;-66
2021/01/17 00:39:31;;;;;;;23.88;3.42;;;;;;;7.44;100.00;102524.75;5073804;28;20131;-66
2021/01/17 00:41:56;;;;;;;22.10;3.42;;;;;;;7.47;100.00;102543.47;5073924;28;20040;-66
2021/01/17 00:44:22;;;;;;;17.90;2.92;;;;;;;7.51;100.00;102531.19;5073993;28;20147;-66
2021/01/17 00:46:48;;;;;;;14.90;3.45;;;;;;;7.52;100.00;102526.59;5073857;28;20037;-66
2021/01/17 00:49:13;;;;;;;33.22;4.55;;;;;;;7.53;100.00;102528.28;5055811;28;20475;-66
2021/01/17 00:51:42;;;;;;;22.50;3.13;;;;;;;7.55;100.00;102532.50;5073880;28;20475;-66
2021/01/17 00:54:09;;;;;;;21.00;2.88;;;;;;;7.56;100.00;102534.19;5073709;28;20032;-65
2021/01/17 00:56:35;;;;;;;33.95;4.90;;;;;;;7.55;100.00;102532.50;5073692;28;20047;-66
2021/01/17 00:59:01;;;;;;;26.08;3.28;;;;;;;7.57;100.00;102541.31;5073589;28;20053;-66
2021/01/17 01:01:26;;;;;;;28.00;3.92;;;;;;;7.59;100.00;102540.31;5073710;28;20475;-66
2021/01/17 01:03:52;;;;;;;16.60;2.78;;;;;;;7.62;100.00;102545.38;5073490;28;20040;-66
2021/01/17 01:06:19;;;;;;;22.20;3.92;;;;;;;7.59;100.00;102541.16;5073703;28;20040;-66
2021/01/17 01:08:46;;;;;;;32.97;4.30;;;;;;;7.57;100.00;102546.75;5073473;28;20642;-66
2021/01/17 01:11:20;;;;;;;26.20;3.47;;;;;;;7.56;100.00;102545.06;5054237;28;20072;-66
2021/01/17 01:13:46;;;;;;;26.30;3.83;;;;;;;7.53;100.00;102550.88;5073591;28;20421;-66
2021/01/17 01:16:13;;;;;;;22.33;4.00;;;;;;;7.52;100.00;102542.91;5073801;28;20094;-66
2021/01/17 01:18:39;;;;;;;23.67;3.55;;;;;;;7.49;100.00;102549.56;5073527;28;20051;-66
2021/01/17 01:21:06;;;;;;;27.83;4.03;;;;;;;7.47;100.00;102548.03;5073540;28;20444;-65
2021/01/17 01:23:31;;;;;;;19.73;3.88;;;;;;;7.44;100.00;102551.94;5073488;28;20037;-66
2021/01/17 01:25:57;;;;;;;26.38;3.83;;;;;;;7.41;100.00;102549.59;5072972;28;20450;-66
2021/01/17 01:28:23;;;;;;;29.23;4.15;;;;;;;7.39;100.00;102548.94;5073233;28;20390;-66
2021/01/17 01:30:49;;;;;;;27.45;3.38;;;;;;;7.38;100.00;102551.81;5073033;28;20466;-66
2021/01/17 01:33:14;;;;;;;20.35;3.58;;;;;;;7.36;100.00;102554.72;5073218;28;20040;-66
2021/01/17 01:35:40;;;;;;;30.05;3.97;;;;;;;7.35;100.00;102550.31;5072947;28;20075;-65
2021/01/17 01:38:06;;;;;;;25.25;3.95;;;;;;;7.35;100.00;102553.03;5072932;28;20029;-66
2021/01/17 01:40:31;;;;;;;28.17;4.78;;;;;;;7.33;100.00;102563.25;5072998;28;20432;-66
2021/01/17 01:42:57;;;;;;;29.23;4.38;;;;;;;7.31;100.00;102562.59;5072879;28;20044;-66
2021/01/17 01:45:22;;;;;;;30.55;4.82;;;;;;;7.31;100.00;102573.47;5073256;28;20382;-66
2021/01/17 01:47:49;;;;;;;22.35;3.85;;;;;;;7.30;100.00;102570.91;5073292;28;20040;-66
2021/01/17 01:50:15;;;;;;;28.10;4.00;;;;;;;7.27;100.00;102572.09;5072797;28;20036;-66
2021/01/17 01:52:41;;;;;;;29.35;5.05;;;;;;;7.25;100.00;102579.59;5072834;28;20375;-66
2021/01/17 01:55:07;;;;;;;29.70;4.38;;;;;;;7.22;100.00;102585.38;5072648;28;20044;-66
2021/01/17 01:57:34;;;;;;;22.60;5.13;;;;;;;7.19;100.00;102581.16;5072580;28;20040;-66
2021/01/17 01:59:59;;;;;;;26.30;5.45;;;;;;;7.17;100.00;102583.19;5072457;28;20089;-65
2021/01/17 02:02:25;;;;;;;22.20;3.97;;;;;;;7.19;100.00;102588.47;5072438;28;20127;-66
2021/01/17 02:04:50;;;;;;;32.15;4.55;;;;;;;7.18;100.00;102589.47;5072471;28;20506;-66
2021/01/17 02:08:04;;;;;;;31.23;6.18;;;;;;;7.22;100.00;102590.81;5072480;28;20048;-66
2021/01/17 02:10:30;;;;;;;25.77;5.05;;;;;;;7.25;100.00;102590.44;5064955;28;20080;-65
2021/01/17 02:13:22;;;;;;;24.40;3.65;;;;;;;7.25;100.00;102591.31;5072612;28;20543;-66
2021/01/17 02:15:52;;;;;;;27.52;3.92;;;;;;;7.29;100.00;102589.09;5054278;28;20029;-66
2021/01/17 02:18:21;;;;;;;27.42;3.97;;;;;;;7.30;100.00;102593.50;5072075;28;20040;-66
2021/01/17 02:20:49;;;;;;;40.42;5.45;;;;;;;7.30;100.00;102593.50;5072128;28;20529;-65
2021/01/17 02:23:21;;;;;;;24.05;4.50;;;;;;;7.30;100.00;102596.22;5071570;28;20051;-65
2021/01/17 02:25:47;;;;;;;30.38;5.80;;;;;;;7.29;100.00;102596.38;5071862;28;20052;-66
2021/01/17 02:28:15;;;;;;;25.38;4.03;;;;;;;7.28;100.00;102606.41;5072037;28;20079;-66
2021/01/17 02:30:49;;;;;;;28.42;4.55;;;;;;;7.27;100.00;102615.59;5036277;28;20078;-66
2021/01/17 02:33:26;;;;;;;23.70;4.50;;;;;;;7.27;100.00;102615.59;5071813;28;20486;-66
2021/01/17 02:35:57;;;;;;;21.13;3.85;;;;;;;7.27;100.00;102621.03;5071869;28;20036;-66
2021/01/17 02:38:37;;;;;;;29.13;3.50;;;;;;;7.26;100.00;102627.47;5071713;28;20032;-66
2021/01/17 02:41:37;;;;;;;30.40;4.03;;;;;;;7.26;100.00;102630.19;5053833;28;20047;-66
2021/01/17 02:44:07;;;;;;;26.77;3.28;;;;;;;7.28;100.00;102628.16;5071518;28;20040;-66
2021/01/17 02:46:32;;;;;;;22.70;4.82;;;;;;;7.28;100.00;102632.72;5071710;28;20047;-66
2021/01/17 02:48:58;;;;;;;23.20;4.03;;;;;;;7.26;100.00;102636.47;5071508;28;20483;-66
2021/01/17 02:51:27;;;;;;;27.80;3.70;;;;;;;7.27;100.00;102631.88;5071494;28;20068;-66
2021/01/17 02:54:05;;;;;;;30.48;3.78;;;;;;;7.24;100.00;102632.25;5071445;28;20044;-65
2021/01/17 02:56:32;;;;;;;17.83;3.22;;;;;;;7.24;100.00;102643.13;5071485;28;20032;-66
2021/01/17 02:58:59;;;;;;;23.95;4.25;;;;;;;7.24;100.00;102634.97;5071414;28;20037;-66
2021/01/17 03:01:29;;;;;;;27.77;3.95;;;;;;;7.24;100.00;102635.81;5071362;28;20036;-66
2021/01/17 03:04:01;;;;;;;31.45;3.55;;;;;;;7.26;100.00;102643.78;5071345;28;20341;-66
2021/01/17 03:06:29;;;;;;;18.63;2.97;;;;;;;7.28;100.00;102644.44;5071303;28;20072;-66
2021/01/17 03:08:55;;;;;;;17.73;3.55;;;;;;;7.30;100.00;102642.44;5071114;28;20047;-66
2021/01/17 03:11:21;;;;;;;24.02;4.00;;;;;;;7.29;100.00;102638.03;5071170;28;20087;-66
2021/01/17 03:13:52;;;;;;;25.77;3.38;;;;;;;7.29;100.00;102640.75;5071390;28;20474;-66
2021/01/17 03:16:18;;;;;;;24.42;3.63;;;;;;;7.28;100.00;102647.16;5071174;28;20070;-66
2021/01/17 03:18:43;;;;;;;19.85;3.92;;;;;;;7.25;100.00;102648.38;5071015;28;20044;-66
2021/01/17 03:21:09;;;;;;;18.33;3.15;;;;;;;7.23;100.00;102645.00;5071104;28;20044;-66
2021/01/17 03:23:35;;;;;;;23.95;4.78;;;;;;;7.22;100.00;102651.44;5070985;28;20050;-65
2021/01/17 03:26:00;;;;;;;21.15;3.58;;;;;;;7.23;100.00;102641.44;5070916;28;20114;-66
2021/01/17 03:28:26;;;;;;;23.67;3.75;;;;;;;7.22;100.00;102640.56;5071033;28;20094;-66
2021/01/17 03:30:52;;;;;;;40.25;4.35;;;;;;;7.22;100.00;102639.72;5071004;28;20424;-66
2021/01/17 03:33:18;;;;;;;20.65;3.38;;;;;;;7.22;100.00;102640.56;5071190;28;20045;-66
2021/01/17 03:35:43;;;;;;;20.05;3.00;;;;;;;7.22;100.00;102639.72;5070108;28;20044;-65
2021/01/17 03:38:09;;;;;;;24.65;4.53;;;;;;;7.20;100.00;102641.78;5070683;28;20044;-65
2021/01/17 03:40:34;;;;;;;21.10;3.42;;;;;;;7.19;100.00;102646.38;5070880;28;20127;-66
2021/01/17 03:43:00;;;;;;;23.55;3.28;;;;;;;7.18;100.00;102649.28;5070761;28;20037;-66
2021/01/17 03:45:26;;;;;;;23.40;3.28;;;;;;;7.17;100.00;102648.44;5070818;28;20040;-66
2021/01/17 03:47:51;;;;;;;25.23;4.13;;;;;;;7.17;100.00;102648.44;5070850;28;20032;-66
2021/01/17 03:50:17;;;;;;;18.38;2.55;;;;;;;7.14;100.00;102653.38;5070662;28;20556;-66
2021/01/17 03:52:42;;;;;;;24.90;4.22;;;;;;;7.12;100.00;102649.97;5070707;28;20032;-66
2021/01/17 03:55:09;;;;;;;19.48;2.83;;;;;;;7.10;100.00;102652.84;5052630;28;20131;-65
2021/01/17 03:57:35;;;;;;;28.63;3.80;;;;;;;7.09;100.00;102653.03;5070614;28;20066;-66
2021/01/17 04:00:00;;;;;;;16.63;2.45;;;;;;;7.07;100.00;102653.19;5070547;28;20472;-66
2021/01/17 04:02:26;;;;;;;20.25;3.47;;;;;;;7.08;100.00;102659.47;5070645;28;20417;-66
2021/01/17 04:04:52;;;;;;;18.88;2.70;;;;;;;7.07;100.00;102657.78;5070599;28;20047;-65
2021/01/17 04:07:17;;;;;;;22.75;2.65;;;;;;;7.06;100.00;102661.53;5070564;28;20036;-66
2021/01/17 04:09:43;;;;;;;17.38;2.53;;;;;;;7.06;100.00;102650.66;5070531;28;20108;-66
2021/01/17 04:12:08;;;;;;;25.83;2.67;;;;;;;7.06;100.00;102662.38;5070482;28;20039;-65
2021/01/17 04:14:34;;;;;;;17.17;2.88;;;;;;;7.07;100.00;102660.50;5070501;28;20175;-66
2021/01/17 04:17:00;;;;;;;17.10;2.33;;;;;;;7.07;100.00;102658.63;5070530;28;20697;-65
2021/01/17 04:19:26;;;;;;;19.02;3.03;;;;;;;7.09;100.00;102661.19;5070519;28;20029;-66
2021/01/17 04:21:51;;;;;;;20.70;3.20;;;;;;;7.12;100.00;102652.69;5070396;28;20059;-66
2021/01/17 04:24:17;;;;;;;20.08;2.58;;;;;;;7.14;100.00;102658.81;5070363;28;20047;-66
2021/01/17 04:26:43;;;;;;;21.83;3.28;;;;;;;7.15;100.00;102658.63;5070294;28;20063;-66
2021/01/17 04:29:08;;;;;;;14.48;2.53;;;;;;;7.15;100.00;102655.91;5070401;28;20032;-66
2021/01/17 04:31:42;;;;;;;19.98;2.38;;;;;;;7.17;100.00;102653.00;5070324;28;20131;-66
2021/01/17 04:34:08;;;;;;;16.20;2.75;;;;;;;7.17;100.00;102659.28;5070239;28;20505;-66
2021/01/17 04:36:33;;;;;;;19.13;3.45;;;;;;;7.17;100.00;102663.88;5070391;28;20040;-66
2021/01/17 04:39:06;;;;;;;14.68;2.42;;;;;;;7.17;100.00;102658.44;5034453;28;20048;-66
2021/01/17 04:41:35;;;;;;;20.48;4.57;;;;;;;7.16;100.00;102664.91;5070175;28;20117;-66
2021/01/17 04:44:04;;;;;;;18.00;4.13;;;;;;;7.14;100.00;102662.38;5070561;28;20359;-66
2021/01/17 04:46:31;;;;;;;24.02;2.65;;;;;;;7.13;100.00;102668.81;5072296;28;20043;-65
2021/01/17 04:49:02;;;;;;;21.80;2.92;;;;;;;7.12;100.00;102688.03;5073775;28;20044;-66
2021/01/17 04:51:29;;;;;;;18.75;3.75;;;;;;;7.11;100.00;102672.72;5073842;28;20119;-66
2021/01/17 04:53:57;;;;;;;25.67;2.60;;;;;;;7.09;100.00;102682.91;5073850;28;20158;-66
2021/01/17 04:56:30;;;;;;;21.33;2.95;;;;;;;7.07;100.00;102687.69;5073654;28;20375;-66
2021/01/17 04:59:13;;;;;;;19.73;2.60;;;;;;;7.05;100.00;102692.44;5074024;28;20033;-65
2021/01/17 05:01:47;;;;;;;18.15;2.55;;;;;;;7.02;100.00;102692.78;5073671;28;20513;-66
2021/01/17 05:04:41;;;;;;;21.52;3.25;;;;;;;7.01;100.00;102694.66;5073553;28;20115;-66
2021/01/17 05:07:16;;;;;;;17.92;4.35;;;;;;;6.99;100.00;102698.56;5073544;28;20036;-66
2021/01/17 05:09:54;;;;;;;21.90;2.65;;;;;;;6.98;100.00;102694.16;5073650;28;20535;-66
2021/01/17 05:12:30;;;;;;;23.38;3.08;;;;;;;6.95;100.00;102704.38;5073367;28;20082;-66
2021/01/17 05:14:56;;;;;;;15.65;3.13;;;;;;;6.98;100.00;102705.03;5073478;28;20032;-65
2021/01/17 05:17:24;;;;;;;20.85;2.72;;;;;;;6.98;100.00;102702.31;5073755;28;20025;-66
2021/01/17 05:19:50;;;;;;;19.55;3.92;;;;;;;7.00;100.00;102703.00;5073181;28;20079;-65
2021/01/17 05:22:19;;;;;;;21.10;3.50;;;;;;;7.05;100.00;102708.75;5073264;28;20045;-66
2021/01/17 05:24:50;;;;;;;16.45;2.85;;;;;;;7.06;100.00;102710.44;5073373;28;20037;-66
2021/01/17 05:27:16;;;;;;;18.80;2.92;;;;;;;7.09;100.00;102720.94;5073090;28;20052;-66
2021/01/17 05:29:41;;;;;;;20.98;2.90;;;;;;;7.11;100.00;102724.34;5073106;28;20454;-66
2021/01/17 05:32:07;;;;;;;23.33;3.42;;;;;;;7.11;100.00;102732.50;5055222;28;20510;-66
2021/01/17 05:34:33;;;;;;;32.92;4.45;;;;;;;7.13;100.00;102734.03;5073171;28;20114;-66
2021/01/17 05:37:02;;;;;;;15.85;3.83;;;;;;;7.17;100.00;102740.81;5072956;28;20044;-66
2021/01/17 05:39:28;;;;;;;19.50;3.10;;;;;;;7.19;100.00;102737.94;5072877;28;20036;-66
2021/01/17 05:41:53;;;;;;;17.58;2.95;;;;;;;7.19;100.00;102743.38;5073101;28;20043;-65
2021/01/17 05:44:29;;;;;;;17.13;2.20;;;;;;;7.20;100.00;102745.06;5072940;28;20044;-65
2021/01/17 05:47:05;;;;;;;19.02;3.10;;;;;;;7.19;100.00;102754.22;5072801;28;20041;-66
2021/01/17 05:49:31;;;;;;;17.83;2.75;;;;;;;7.18;100.00;102763.41;5072832;28;20032;-66
2021/01/17 05:52:10;;;;;;;12.48;1.75;;;;;;;7.17;100.00;102761.72;5072733;28;20080;-66
2021/01/17 05:54:41;;;;;;;22.20;3.47;;;;;;;7.16;100.00;102765.47;5072562;28;20036;-66
2021/01/17 05:57:14;;;;;;;21.48;2.75;;;;;;;7.12;100.00;102769.53;5071972;28;20086;-66
2021/01/17 05:59:40;;;;;;;14.55;2.55;;;;;;;7.10;100.00;102774.28;5072460;28;20483;-66
2021/01/17 06:02:18;;;;;;;19.67;3.08;;;;;;;7.06;100.00;102767.50;5072458;28;20032;-66
2021/01/17 06:04:48;;;;;;;14.90;3.00;;;;;;;7.04;100.00;102766.81;5072609;28;20068;-66
2021/01/17 06:07:15;;;;;;;18.10;3.00;;;;;;;7.01;100.00;102768.03;5072410;28;20050;-66
2021/01/17 06:09:42;;;;;;;16.45;2.45;;;;;;;6.99;100.00;102772.78;5072316;28;20063;-65
2021/01/17 06:12:09;;;;;;;19.27;2.53;;;;;;;6.98;100.00;102772.94;5072391;28;20036;-66
2021/01/17 06:14:35;;;;;;;19.50;2.30;;;;;;;6.96;100.00;102775.84;5072305;28;20044;-66
2021/01/17 06:17:03;;;;;;;10.48;1.60;;;;;;;6.94;100.00;102781.44;5072219;28;20556;-66
2021/01/17 06:19:33;;;;;;;17.70;2.17;;;;;;;6.98;100.00;102789.25;5072008;28;20089;-66
2021/01/17 06:22:01;;;;;;;17.98;2.58;;;;;;;6.97;100.00;102798.44;5072167;28;20036;-66
2021/01/17 06:24:38;;;;;;;18.45;2.75;;;;;;;6.97;100.00;102801.16;5072061;28;20048;-66
2021/01/17 06:27:05;;;;;;;18.38;2.83;;;;;;;6.95;100.00;102810.31;5071922;28;20129;-66
2021/01/17 06:29:42;;;;;;;15.65;2.60;;;;;;;6.94;100.00;102800.47;5071987;28;20470;-65
2021/01/17 06:32:15;;;;;;;17.38;2.50;;;;;;;6.92;100.00;102812.50;5036371;28;20099;-66
2021/01/17 06:34:54;;;;;;;19.05;2.22;;;;;;;6.90;100.00;102815.38;5071792;28;20068;-66
2021/01/17 06:37:22;;;;;;;18.33;2.88;;;;;;;6.89;100.00;102801.97;5071940;28;20072;-66
2021/01/17 06:39:53;;;;;;;16.35;3.03;;;;;;;6.87;100.00;102807.59;5071706;28;20151;-66
2021/01/17 06:42:20;;;;;;;17.15;3.08;;;;;;;6.85;100.00;102806.91;5071662;28;20036;-65
2021/01/17 06:44:47;;;;;;;23.70;2.60;;;;;;;6.82;100.00;102812.69;5071743;28;20044;-65
2021/01/17 06:47:18;;;;;;;13.32;2.78;;;;;;;6.80;100.00;102820.16;5071638;28;20044;-65
2021/01/17 06:49:45;;;;;;;19.63;3.42;;;;;;;6.78;100.00;102822.19;5071528;28;20036;-66
2021/01/17 06:52:11;;;;;;;15.48;2.45;;;;;;;6.78;100.00;102819.47;5071486;28;20130;-66
2021/01/17 06:54:43;;;;;;;20.20;1.90;;;;;;;6.77;100.00;102823.22;5071488;28;20044;-66
2021/01/17 06:57:09;;;;;;;13.82;1.73;;;;;;;6.78;100.00;102821.34;5071456;28;20063;-66
2021/01/17 06:59:44;;;;;;;18.10;2.00;;;;;;;6.77;100.00;102820.50;5071336;28;20495;-66
2021/01/17 07:02:13;;;;;;;12.60;2.30;;;;;;;6.77;100.00;102828.66;5071275;28;20080;-66
2021/01/17 07:04:40;;;;;;;19.15;2.78;;;;;;;6.78;100.00;102826.78;5071312;28;20063;-66
2021/01/17 07:07:06;;;;;;;10.88;1.92;;;;;;;6.81;100.00;102840.00;5071273;28;20040;-66
2021/01/17 07:09:37;;;;;;;14.50;2.28;;;;;;;6.82;100.00;102848.00;5071173;28;20031;-66
2021/01/17 07:12:19;;;;;;;13.90;1.70;;;;;;;6.81;100.00;102849.00;5068966;28;20127;-66
2021/01/17 07:14:56;;;;;;;16.60;2.50;;;;;;;6.81;100.00;102846.28;5071279;28;20056;-66
2021/01/17 07:17:26;;;;;;;14.90;2.03;;;;;;;6.80;100.00;102847.31;5071263;28;20115;-66
2021/01/17 07:19:53;;;;;;;12.65;1.92;;;;;;;6.79;100.00;102861.06;5070913;28;20059;-66
2021/01/17 07:22:19;;;;;;;20.27;2.40;;;;;;;6.78;100.00;102854.78;5071022;28;20441;-65
2021/01/17 07:24:48;;;;;;;14.40;3.20;;;;;;;6.75;100.00;102855.09;5071029;28;20032;-66
2021/01/17 07:27:34;;;;;;;12.80;1.90;;;;;;;6.70;100.00;102856.63;5070840;28;20132;-66
2021/01/17 07:30:03;;;;;;;14.77;1.95;;;;;;;6.66;100.00;102864.25;5070962;28;20486;-65
2021/01/17 07:32:33;;;;;;;8.98;2.58;;;;;;;6.64;100.00;102863.59;5070994;28;20036;-65
2021/01/17 07:35:09;;;;;;;14.30;2.28;;;;;;;6.62;100.00;102860.19;5070843;28;20064;-66
2021/01/17 07:37:39;;;;;;;20.02;2.75;;;;;;;6.62;100.00;102861.03;5071026;28;20051;-66
2021/01/17 07:40:08;;;;;;;19.75;2.55;;;;;;;6.61;100.00;102861.22;5052866;28;20497;-65
2021/01/17 07:42:36;;;;;;;21.02;3.35;;;;;;;6.61;100.00;102863.91;5070780;28;20044;-66
2021/01/17 07:45:16;;;;;;;17.23;2.33;;;;;;;6.59;100.00;102857.78;5070977;28;20036;-66
2021/01/17 07:47:43;;;;;;;15.75;2.97;;;;;;;6.57;100.00;102862.53;5070917;28;20137;-66
2021/01/17 07:50:10;;;;;;;10.70;2.35;;;;;;;6.54;100.00;102863.72;5070613;28;20040;-66
2021/01/17 07:52:41;;;;;;;18.48;3.15;;;;;;;6.50;100.00;102872.38;5070702;28;20040;-66
2021/01/17 07:55:12;;;;;;;15.13;2.58;;;;;;;6.50;100.00;102883.22;5070782;28;20494;-66
2021/01/17 07:57:37;;;;;;;12.60;2.45;;;;;;;6.48;100.00;102874.41;5070702;28;20033;-66
2021/01/17 08:00:07;;;;;;;17.40;1.77;;;;;;;6.47;100.00;102872.69;5070507;28;20133;-66
2021/01/17 08:02:35;;;;;;;14.02;1.63;;;;;;;6.45;100.00;102888.31;5070789;28;20083;-66
2021/01/17 08:05:02;;;;;;;10.90;1.70;;;;;;;6.44;100.00;102883.91;5052619;28;20036;-66
2021/01/17 08:07:33;;;;;;;9.25;1.58;;;;;;;6.43;100.00;102879.47;5070549;28;20493;-66
2021/01/17 08:09:59;;;;;;;13.18;1.77;;;;;;;6.43;100.00;102888.47;5070492;28;20033;-66
2021/01/17 08:12:29;;;;;;;21.70;2.40;;;;;;;6.44;100.00;102892.03;5070583;28;20038;-66
2021/01/17 08:15:13;;;;;;;15.27;2.42;;;;;;;6.42;100.00;102886.78;5070501;28;20044;-66
2021/01/17 08:17:39;;;;;;;18.30;2.38;;;;;;;6.43;100.00;102898.50;5070939;28;20036;-66
2021/01/17 08:20:07;;;;;;;21.35;2.25;;;;;;;6.42;100.00;102902.19;5070512;28;20175;-66
2021/01/17 08:22:32;;;;;;;13.98;1.73;;;;;;;6.43;100.00;102903.91;5074362;28;20539;-65
2021/01/17 08:25:05;;;;;;;16.25;3.58;;;;;;;6.42;100.00;102902.19;5074356;28;20040;-66
2021/01/17 08:27:32;;;;;;;12.63;1.63;;;;;;;6.41;100.00;102903.19;5056468;28;20646;-66
2021/01/17 08:30:03;;;;;;;18.20;1.95;;;;;;;6.35;100.00;102908.28;5074131;28;20051;-66
2021/01/17 08:32:38;;;;;;;12.65;2.00;;;;;;;6.32;100.00;102903.19;5074265;28;20036;-66
2021/01/17 08:35:15;;;;;;;;;;;;;;;6.30;100.00;102905.22;5074725;28;20036;-65
2021/01/17 08:37:42;;;;;;;10.45;1.83;;;;;;;6.28;100.00;102918.09;5074153;28;19912;-66
2021/01/17 08:40:09;;;;;;;13.52;2.35;;;;;;;6.26;100.00;102922.84;5074036;28;20163;-66
2021/01/17 08:42:37;;;;;;;20.17;2.03;;;;;;;6.25;100.00;102934.72;5074095;28;20033;-66
2021/01/17 08:45:24;;;;;;;13.23;2.45;;;;;;;6.26;100.00;102936.41;5074240;28;20032;-65
2021/01/17 08:47:58;;;;;;;15.20;1.95;;;;;;;6.28;100.00;102945.25;5074097;28;20307;-66
2021/01/17 08:50:35;;;;;;;10.75;2.03;;;;;;;6.33;100.00;102961.88;5074164;28;20036;-66
2021/01/17 08:53:22;;;;;;;15.75;2.25;;;;;;;6.37;100.00;102956.97;5073996;28;20037;-65
2021/01/17 08:55:50;;;;;;;16.70;2.63;;;;;;;6.40;100.00;102953.06;5073779;28;20132;-66
2021/01/17 08:58:25;;;;;;;13.60;2.03;;;;;;;6.43;100.00;102948.19;5073745;28;20032;-66
2021/01/17 09:00:51;;;;;;;12.65;2.70;;;;;;;6.44;100.00;102944.47;5073806;28;20035;-65
2021/01/17 09:03:34;;;;;;;5.47;1.63;;;;;;;6.43;100.00;102953.63;5055477;28;20617;-65
2021/01/17 09:06:22;;;;;;;19.42;3.95;;;;;;;6.44;100.00;102959.91;5073670;28;20394;-66
2021/01/17 09:08:47;;;;;;;16.92;3.13;;;;;;;6.43;100.00;102958.22;5073624;28;20032;-66
2021/01/17 09:11:28;;;;;;;17.80;2.70;;;;;;;6.43;100.00;102967.19;5073483;28;20044;-65
2021/01/17 09:14:25;;;;;;;14.38;2.42;;;;;;;6.44;100.00;102968.06;5073352;28;20063;-65
2021/01/17 09:17:02;;;;;;;9.52;1.63;;;;;;;6.42;100.00;102972.75;4991656;28;20452;-66
2021/01/17 09:19:33;;;;;;;13.10;2.45;;;;;;;6.41;100.00;102976.50;4991568;28;20035;-66
2021/01/17 09:22:01;;;;;;;16.13;2.10;;;;;;;6.40;100.00;102972.94;5066705;28;20041;-66
2021/01/17 09:24:29;;;;;;;16.35;2.25;;;;;;;6.40;100.00;102980.22;5073355;28;20081;-65
2021/01/17 09:26:57;;;;;;;13.65;2.33;;;;;;;6.39;100.00;102984.81;5073011;28;20048;-65
2021/01/17 09:29:27;;;;;;;13.85;2.78;;;;;;;6.40;100.00;102980.22;5073170;28;20040;-66
2021/01/17 09:31:56;;;;;;;13.32;1.55;;;;;;;6.45;100.00;102977.91;5072325;28;20426;-66
2021/01/17 09:34:30;;;;;;;19.08;1.80;;;;;;;6.47;100.00;102975.88;5072893;28;20394;-65
2021/01/17 09:36:57;;;;;;;16.45;2.60;;;;;;;6.51;100.00;102977.22;5073442;28;20372;-66
2021/01/17 09:39:35;;;;;;;19.48;2.00;;;;;;;6.55;100.00;102973.16;5072882;28;20052;-66
2021/01/17 09:42:02;;;;;;;17.15;2.50;;;;;;;6.58;100.00;102978.25;5072890;28;20041;-66
2021/01/17 09:44:28;;;;;;;16.20;2.53;;;;;;;6.59;100.00;102975.38;5072985;28;20105;-66
2021/01/17 09:46:54;;;;;;;18.27;2.60;;;;;;;6.62;100.00;102985.09;5072794;28;20045;-65
2021/01/17 09:49:22;;;;;;;12.98;2.40;;;;;;;6.66;100.00;103005.47;5072782;28;20032;-66
2021/01/17 09:51:48;;;;;;;13.23;2.20;;;;;;;6.69;100.00;103002.44;5072812;28;20040;-66
2021/01/17 09:54:14;;;;;;;16.80;2.70;;;;;;;6.75;100.00;103007.19;5072848;28;20543;-66
2021/01/17 09:56:41;;;;;;;14.45;1.88;;;;;;;6.78;100.00;103006.88;5072715;28;20036;-66
2021/01/17 09:59:12;;;;;;;12.88;1.77;;;;;;;6.83;100.00;103009.97;5072547;28;20171;-66
2021/01/17 10:01:39;;;;;;;16.52;1.92;;;;;;;6.87;100.00;103005.88;5072509;28;20036;-66
2021/01/17 10:04:05;;;;;;;14.35;2.97;;;;;;;6.93;100.00;103026.94;5072539;28;20040;-65
2021/01/17 10:06:33;;;;;;;7.57;1.30;;;;;;;6.97;100.00;103015.78;5072473;28;20040;-66
2021/01/17 10:08:59;;;;;;;10.60;1.52;;;;;;;7.00;100.00;103015.44;5072291;28;20057;-65
2021/01/17 10:11:24;;;;;;;16.00;1.88;;;;;;;7.06;100.00;103003.91;5072275;28;20066;-66
2021/01/17 10:13:50;;;;;;;16.25;2.60;;;;;;;7.11;100.00;103009.69;5072203;28;20051;-66
2021/01/17 10:16:23;;;;;;;18.85;1.83;;;;;;;7.14;100.00;103012.94;5054231;28;20055;-65
2021/01/17 10:18:49;;;;;;;12.68;2.22;;;;;;;7.19;100.00;103023.31;5072036;28;20527;-66
2021/01/17 10:21:16;;;;;;;24.58;2.70;;;;;;;7.23;100.00;103021.94;5072276;28;20467;-66
2021/01/17 10:23:42;;;;;;;17.23;2.70;;;;;;;7.27;100.00;103023.31;5071984;28;20036;-65
2021/01/17 10:26:07;;;;;;;11.07;2.30;;;;;;;7.32;100.00;103031.84;5071898;28;20437;-66
2021/01/17 10:28:33;;;;;;;16.20;2.85;;;;;;;7.40;100.00;103029.13;5071948;28;20028;-66
2021/01/17 10:31:00;;;;;;;16.13;2.88;;;;;;;7.50;100.00;103035.25;5072453;28;20052;-66
2021/01/17 10:33:29;;;;;;;13.18;2.70;;;;;;;7.59;100.00;103032.53;5071780;28;20040;-66
2021/01/17 10:35:55;;;;;;;13.27;2.80;;;;;;;7.71;100.00;103036.63;5071886;28;20040;-66
2021/01/17 10:38:21;;;;;;;12.93;2.53;;;;;;;7.77;100.00;103019.63;5071756;28;20043;-66
2021/01/17 10:40:48;;;;;;;14.50;3.55;;;;;;;7.81;100.00;103015.56;5071791;28;20388;-66
2021/01/17 10:43:21;;;;;;;18.17;2.70;;;;;;;7.83;100.00;103010.78;5071550;28;20041;-66
2021/01/17 10:45:53;;;;;;;14.60;2.55;;;;;;;7.89;100.00;103023.69;5071689;28;20067;-65
2021/01/17 10:48:19;;;;;;;13.43;2.38;;;;;;;7.90;100.00;103028.13;5071763;28;20036;-66
2021/01/17 10:51:02;;;;;;;16.48;2.92;;;;;;;7.95;100.00;103023.00;5071534;28;20119;-67
2021/01/17 10:53:35;;;;;;;20.13;2.50;;;;;;;7.96;100.00;103024.69;5071910;28;20462;-65
2021/01/17 10:56:01;;;;;;;19.13;2.65;;;;;;;8.01;100.00;103026.94;5071509;28;20440;-66
2021/01/17 10:58:48;;;;;;;19.10;2.50;;;;;;;8.06;100.00;103036.28;5071477;28;20056;-66
2021/01/17 11:01:14;;;;;;;11.98;2.40;;;;;;;8.12;100.00;103046.47;5070905;28;20041;-65
2021/01/17 11:03:41;;;;;;;22.33;3.28;;;;;;;8.12;100.00;103051.91;5071265;28;20062;-66
2021/01/17 11:06:10;;;;;;;14.48;2.40;;;;;;;8.16;100.00;103060.59;5071859;28;20439;-66
2021/01/17 11:08:43;;;;;;;24.00;3.92;;;;;;;8.17;100.00;103059.59;5071178;28;20062;-66
2021/01/17 11:11:09;;;;;;;18.05;2.35;;;;;;;8.20;100.00;103058.38;5071188;28;20040;-65
2021/01/17 11:13:36;;;;;;;23.10;2.40;;;;;;;8.25;100.00;103064.16;5071163;28;20478;-66
2021/01/17 11:16:02;;;;;;;20.85;2.65;;;;;;;8.34;100.00;103065.88;5071207;28;20081;-65
2021/01/17 11:18:28;;;;;;;17.85;2.78;;;;;;;8.39;100.00;103066.22;5071073;28;20044;-66
2021/01/17 11:21:01;;;;;;;12.20;2.35;;;;;;;8.46;100.00;103069.94;5071014;28;20044;-66
2021/01/17 11:23:28;;;;;;;16.05;2.40;;;;;;;8.53;100.00;103065.50;5071072;28;20044;-66
2021/01/17 11:26:03;;;;;;;17.88;2.08;;;;;;;8.56;100.00;103059.69;5070788;28;20055;-66